Time;durP1;ratioP1;P1;durP2;ratioP2;P2;SDS_P1;SDS_P2;PMS_P1;PMS_P2;Temp;Humidity;BMP_temperature;BMP_pressure;BME280_temperature;BME280_humidity;BME280_pressure;Samples;Min_cycle;Max_cycle;Signal;HPM_P1;HPM_P2
2023/09/20 05:32:45;;;;;;;;;0.00;0.00;;;;;22.82;56.61;100687.94;5074182;27;45685;-73
2023/09/20 05:35:11;;;;;;;;;0.00;0.00;;;;;23.06;56.70;100700.69;5061975;28;45509;-73
2023/09/20 05:37:38;;;;;;;;;4.00;1.00;;;;;23.26;56.71;100708.50;5081366;27;45771;-70
2023/09/20 05:40:07;;;;;;;;;5.00;2.00;;;;;23.50;56.41;100714.97;5067079;28;45673;-71
2023/09/20 05:42:32;;;;;;;;;2.00;1.00;;;;;23.72;55.99;100699.91;5063598;27;47823;-72
2023/09/20 05:44:58;;;;;;;;;1.00;1.00;;;;;23.95;55.79;100696.50;5067939;28;61233;-71
2023/09/20 05:47:23;;;;;;;;;3.00;0.67;;;;;24.18;54.79;100696.63;5064939;28;45593;-71
2023/09/20 05:49:49;;;;;;;;;3.00;1.00;;;;;24.40;54.38;100698.75;5057205;28;55983;-72
2023/09/20 05:52:15;;;;;;;;;3.00;2.00;;;;;24.62;54.19;100694.41;5067862;28;45660;-70
2023/09/20 05:54:44;;;;;;;;;0.67;0.67;;;;;24.83;53.90;100701.97;5061809;28;45393;-71
2023/09/20 05:57:09;;;;;;;;;1.00;1.00;;;;;25.02;53.94;100694.41;5062113;28;45582;-72
2023/09/20 05:59:34;;;;;;;;;1.33;1.33;;;;;25.19;53.16;100691.56;5067615;28;45477;-72
2023/09/20 06:02:00;;;;;;;;;0.00;0.00;;;;;25.34;53.13;100692.44;5068065;28;56173;-71
2023/09/20 06:04:25;;;;;;;;;0.00;0.00;;;;;25.51;52.21;100681.47;5064414;28;47431;-72
2023/09/20 06:06:50;;;;;;;;;2.00;1.00;;;;;25.67;51.96;100685.06;5064184;28;50615;-71
2023/09/20 06:09:15;;;;;;;;;1.00;1.00;;;;;25.79;52.14;100686.34;5061418;27;45526;-72
2023/09/20 06:11:41;;;;;;;;;0.33;0.33;;;;;25.90;51.48;100691.31;5055748;28;46009;-72
2023/09/20 06:14:08;;;;;;;;;0.00;0.00;;;;;25.99;51.43;100674.91;5060061;28;45473;-72
2023/09/20 06:16:33;;;;;;;;;1.00;1.00;;;;;26.14;50.85;100677.63;5061354;28;45607;-72
2023/09/20 06:18:59;;;;;;;;;2.00;1.00;;;;;26.24;51.13;100675.44;5062277;28;45760;-72
2023/09/20 06:21:25;;;;;;;;;3.00;1.00;;;;;26.33;50.63;100676.25;5060496;27;46451;-73
2023/09/20 06:23:50;;;;;;;;;0.00;0.00;;;;;26.39;50.39;100678.19;5065380;28;45515;-72
2023/09/20 06:26:16;;;;;;;;;1.33;1.00;;;;;26.48;50.52;100672.66;5065295;28;45703;-72
2023/09/20 06:28:42;;;;;;;;;1.67;1.67;;;;;26.56;50.45;100670.66;5056029;28;45733;-71
2023/09/20 06:31:12;;;;;;;;;1.00;1.00;;;;;26.63;50.19;100673.47;5071542;27;45982;-72
2023/09/20 06:33:38;;;;;;;;;0.67;0.67;;;;;26.69;49.38;100669.97;5081955;27;45411;-73
2023/09/20 06:36:04;;;;;;;;;0.33;0.00;;;;;26.75;49.47;100673.81;5084200;27;45450;-72
2023/09/20 06:38:30;;;;;;;;;1.00;1.00;;;;;26.80;49.53;100662.31;5084173;27;45429;-73
2023/09/20 06:40:56;;;;;;;;;1.00;1.00;;;;;26.84;49.01;100669.06;5086326;27;47667;-73
2023/09/20 06:43:21;;;;;;;;;1.00;0.67;;;;;26.89;48.75;100669.34;5077203;27;45504;-73
2023/09/20 06:45:52;;;;;;;;;1.00;1.00;;;;;26.94;49.38;100668.81;5064452;28;45691;-72
2023/09/20 06:48:26;;;;;;;;;1.00;1.00;;;;;26.96;49.02;100662.13;5064560;28;45448;-71
2023/09/20 06:50:55;;;;;;;;;1.33;1.33;;;;;27.03;48.60;100661.34;5068709;28;46246;-72
2023/09/20 06:53:23;;;;;;;;;1.00;1.00;;;;;27.07;48.35;100654.47;5074660;28;45341;-71
2023/09/20 06:55:49;;;;;;;;;0.00;0.00;;;;;27.12;48.84;100656.59;5070943;28;45710;-72
2023/09/20 06:58:15;;;;;;;;;0.33;0.33;;;;;27.14;48.02;100662.72;5072644;28;45437;-71
2023/09/20 07:00:41;;;;;;;;;2.00;1.00;;;;;27.17;47.71;100665.03;5067923;28;46059;-72
2023/09/20 07:03:07;;;;;;;;;0.67;0.67;;;;;27.17;47.53;100674.06;5066253;28;46208;-72
2023/09/20 07:05:33;;;;;;;;;0.67;0.67;;;;;27.20;48.00;100667.38;5051143;28;45650;-74
2023/09/20 07:08:01;;;;;;;;;0.00;0.00;;;;;27.25;48.09;100677.69;5067730;28;45418;-74
2023/09/20 07:10:29;;;;;;;;;2.67;1.00;;;;;27.31;47.52;100669.59;5063212;28;46564;-74
2023/09/20 07:12:55;;;;;;;;;0.67;0.67;;;;;27.39;47.59;100670.47;5066626;28;45477;-74
2023/09/20 07:15:24;;;;;;;;;1.00;1.00;;;;;27.45;48.13;100669.69;5072102;28;45486;-74
2023/09/20 07:17:58;;;;;;;;;1.00;1.00;;;;;27.50;47.52;100667.19;5061331;27;45565;-74
2023/09/20 07:20:26;;;;;;;;;0.00;0.00;;;;;27.56;47.98;100663.72;5072540;28;45447;-75
2023/09/20 07:22:53;;;;;;;;;0.00;0.00;;;;;27.61;47.47;100666.72;5074242;28;45629;-74
2023/09/20 07:25:19;;;;;;;;;0.00;0.00;;;;;27.64;47.18;100662.75;5070651;28;46587;-74
2023/09/20 07:27:49;;;;;;;;;0.67;0.67;;;;;27.71;47.15;100665.53;5068498;28;46914;-73
2023/09/20 07:30:21;;;;;;;;;2.00;2.00;;;;;27.73;47.74;100669.72;5064094;28;46299;-74
2023/09/20 07:32:48;;;;;;;;;1.00;1.00;;;;;27.72;47.41;100657.13;5073093;28;46002;-74
2023/09/20 07:35:26;;;;;;;;;1.00;1.00;;;;;27.79;47.20;100668.06;5069505;28;45596;-72
2023/09/20 07:37:56;;;;;;;;;1.00;0.00;;;;;27.83;47.27;100665.81;5061718;28;45551;-73
2023/09/20 07:40:31;;;;;;;;;0.67;0.67;;;;;27.87;47.28;100665.19;5051435;28;47293;-74
2023/09/20 07:43:04;;;;;;;;;1.00;1.00;;;;;27.91;47.34;100653.91;5059840;28;45443;-74
2023/09/20 07:45:38;;;;;;;;;0.33;0.33;;;;;27.93;47.29;100658.13;5050719;28;45736;-74
2023/09/20 07:48:11;;;;;;;;;1.00;1.00;;;;;27.96;46.88;100654.97;5064282;28;45704;-73
2023/09/20 07:50:40;;;;;;;;;1.00;0.00;;;;;28.01;47.24;100663.41;5069056;28;45396;-74
2023/09/20 07:53:06;;;;;;;;;1.00;1.00;;;;;28.03;46.85;100644.09;5066107;28;45471;-73
2023/09/20 07:55:34;;;;;;;;;0.67;0.67;;;;;28.06;47.05;100654.63;5067512;28;45468;-72
2023/09/20 07:57:59;;;;;;;;;0.00;0.00;;;;;28.07;47.16;100656.28;5073944;28;45487;-73
2023/09/20 08:00:26;;;;;;;;;1.00;1.00;;;;;28.09;46.84;100656.94;5069764;28;61967;-72
2023/09/20 08:02:54;;;;;;;;;0.00;0.00;;;;;28.12;47.20;100656.53;5070796;27;45395;-72
2023/09/20 08:05:22;;;;;;;;;1.00;1.00;;;;;28.14;46.80;100656.34;5069559;28;45480;-72
2023/09/20 08:07:47;;;;;;;;;2.00;2.00;;;;;28.14;46.25;100650.88;5073034;28;45343;-74
2023/09/20 08:10:13;;;;;;;;;0.67;0.33;;;;;28.18;46.58;100651.31;5073835;28;45667;-73
2023/09/20 08:12:38;;;;;;;;;0.00;0.00;;;;;28.20;46.73;100660.97;5070779;28;45537;-74
2023/09/20 08:15:04;;;;;;;;;0.00;0.00;;;;;28.23;46.38;100654.25;5065470;28;45501;-73
2023/09/20 08:20:16;;;;;;;;;0.67;0.67;;;;;28.25;46.11;100649.50;5075129;27;45754;-74
2023/09/20 09:01:12;;;;;;;;;2.00;2.00;;;;;28.08;44.55;100627.97;5068355;28;45459;-72
2023/09/20 09:03:41;;;;;;;;;2.00;2.00;;;;;28.07;44.55;100625.47;5063226;28;45706;-72
2023/09/20 09:06:08;;;;;;;;;0.67;0.67;;;;;28.06;43.94;100624.59;5054857;28;45693;-74
2023/09/20 09:08:34;;;;;;;;;0.67;0.67;;;;;28.07;44.07;100630.91;5059421;28;45419;-76
2023/09/20 09:10:59;;;;;;;;;0.33;0.33;;;;;28.05;44.10;100635.72;5066535;28;45519;-75
2023/09/20 09:13:25;;;;;;;;;1.33;0.00;;;;;28.03;43.84;100638.63;5066849;28;51899;-75
2023/09/20 09:15:50;;;;;;;;;1.00;1.00;;;;;28.01;43.97;100624.38;5044733;28;45465;-75
2023/09/20 09:18:17;;;;;;;;;2.33;1.00;;;;;28.02;44.12;100623.31;5067640;28;45491;-75
2023/09/20 09:20:45;;;;;;;;;2.00;2.00;;;;;27.98;44.03;100616.59;5054762;28;45504;-74
2023/09/20 09:23:10;;;;;;;;;3.00;2.00;;;;;28.01;43.74;100621.66;5066420;28;47019;-71
2023/09/20 09:25:35;;;;;;;;;1.00;1.00;;;;;27.99;43.84;100616.38;5071968;28;49314;-72
2023/09/20 09:28:01;;;;;;;;;0.67;0.67;;;;;27.99;44.32;100618.25;5053148;28;45973;-72
2023/09/20 09:30:26;;;;;;;;;2.00;2.00;;;;;27.98;44.44;100622.91;5072592;28;45363;-72
2023/09/20 09:32:52;;;;;;;;;1.67;1.67;;;;;27.99;43.68;100627.28;5070094;27;45731;-71
2023/09/20 09:35:19;;;;;;;;;2.00;2.00;;;;;27.99;43.73;100604.63;5069964;28;45574;-73
2023/09/20 09:37:44;;;;;;;;;2.00;2.00;;;;;28.00;44.12;100601.69;5063327;28;45761;-74
2023/09/20 09:40:14;;;;;;;;;8.33;5.00;;;;;27.99;43.43;100602.75;5058087;28;45743;-74
2023/09/20 09:42:42;;;;;;;;;19.67;14.33;;;;;27.98;43.46;100594.75;5050006;28;47549;-74
2023/09/20 09:45:09;;;;;;;;;17.33;10.67;;;;;28.01;43.68;100586.19;5054642;28;45547;-73
2023/09/20 09:47:36;;;;;;;;;11.67;10.33;;;;;27.99;43.71;100585.53;5059193;28;45481;-74
2023/09/20 09:50:04;;;;;;;;;11.67;9.00;;;;;28.02;43.39;100574.22;5060917;28;45477;-73
2023/09/20 09:52:29;;;;;;;;;11.00;7.00;;;;;28.03;43.01;100573.16;5056483;27;45395;-73
2023/09/20 09:54:55;;;;;;;;;8.00;6.33;;;;;28.05;42.90;100567.53;5053869;28;45484;-74
2023/09/20 09:57:21;;;;;;;;;10.33;8.33;;;;;28.06;43.00;100563.75;5055021;28;45442;-73
2023/09/20 09:59:48;;;;;;;;;11.00;8.33;;;;;28.07;43.75;100551.81;5058865;28;45587;-74
2023/09/20 10:02:19;;;;;;;;;9.00;5.67;;;;;28.07;42.79;100551.81;5063425;28;46505;-73
2023/09/20 10:04:50;;;;;;;;;7.67;5.67;;;;;28.10;43.10;100545.91;5062903;28;45527;-74
2023/09/20 10:07:18;;;;;;;;;11.33;6.67;;;;;28.10;43.07;100543.19;5053566;28;45388;-72
2023/09/20 10:09:48;;;;;;;;;7.67;6.00;;;;;28.09;42.98;100536.91;5060834;28;45391;-74
2023/09/20 10:12:15;;;;;;;;;3.67;1.67;;;;;28.10;42.52;100544.03;5063345;28;46416;-72
2023/09/20 10:14:43;;;;;;;;;5.33;5.33;;;;;28.09;42.09;100539.66;5065734;28;45447;-74
2023/09/20 10:17:08;;;;;;;;;6.33;2.67;;;;;28.09;42.04;100530.59;5063130;28;45423;-74
2023/09/20 10:19:36;;;;;;;;;3.33;3.33;;;;;28.11;42.51;100525.78;5037394;28;45491;-75
2023/09/20 10:22:13;;;;;;;;;3.67;3.33;;;;;28.12;41.72;100514.66;5063505;28;45646;-75
2023/09/20 10:25:00;;;;;;;;;7.00;4.33;;;;;28.12;42.37;100513.84;5063114;28;45453;-72
2023/09/20 10:27:30;;;;;;;;;5.67;3.00;;;;;28.14;42.05;100523.50;5067377;28;45494;-74
2023/09/20 10:30:09;;;;;;;;;2.67;2.67;;;;;28.16;42.17;100515.13;5070085;28;45459;-74
2023/09/20 10:32:37;;;;;;;;;4.33;4.33;;;;;28.18;42.31;100512.16;5071617;28;46361;-73
2023/09/20 10:35:31;;;;;;;;;2.67;2.67;;;;;28.19;41.82;100509.22;5072710;28;46518;-73
2023/09/20 10:38:09;;;;;;;;;3.33;1.67;;;;;28.20;42.21;100515.53;5070545;28;45399;-73
2023/09/20 10:40:55;;;;;;;;;3.00;2.33;;;;;28.23;41.79;100506.91;5062647;28;45447;-74
2023/09/20 10:43:35;;;;;;;;;3.67;3.00;;;;;28.26;42.19;100501.09;5052576;28;47278;-73
2023/09/20 10:46:09;;;;;;;;;2.33;2.33;;;;;28.25;41.70;100492.06;5059719;28;45512;-73
2023/09/20 10:48:40;;;;;;;;;4.67;4.67;;;;;28.28;42.30;100490.78;5042924;28;45412;-73
2023/09/20 10:51:07;;;;;;;;;6.00;4.00;;;;;28.29;41.70;100503.41;5059081;28;45355;-75
2023/09/20 10:53:44;;;;;;;;;2.00;2.00;;;;;28.31;41.82;100495.84;5071055;28;46197;-74
2023/09/20 10:56:10;;;;;;;;;2.00;2.00;;;;;28.31;41.53;100495.03;5067307;28;45418;-74
2023/09/20 10:58:41;;;;;;;;;4.00;2.67;;;;;28.31;41.90;100484.13;5069705;28;45629;-74
2023/09/20 11:01:08;;;;;;;;;1.33;1.00;;;;;28.32;41.19;100493.97;5062830;28;45494;-72
2023/09/20 11:03:34;;;;;;;;;5.00;2.00;;;;;28.33;41.52;100490.19;5069737;28;45673;-73
2023/09/20 11:06:00;;;;;;;;;2.00;2.00;;;;;28.37;41.91;100481.38;5061892;28;45584;-74
2023/09/20 11:08:25;;;;;;;;;3.00;3.00;;;;;28.40;41.22;100472.78;5069774;28;45382;-74
2023/09/20 11:10:54;;;;;;;;;1.00;1.00;;;;;28.41;41.16;100474.44;5074491;28;45513;-74
2023/09/20 11:13:21;;;;;;;;;7.00;4.33;;;;;28.44;41.15;100472.38;5060347;27;47136;-73
2023/09/20 11:15:48;;;;;;;;;3.00;2.00;;;;;28.47;41.46;100469.19;5059653;27;45538;-74
2023/09/20 11:18:19;;;;;;;;;1.00;1.00;;;;;28.49;41.28;100472.59;5066897;28;45667;-73
2023/09/20 11:20:46;;;;;;;;;4.00;2.00;;;;;28.49;41.59;100461.66;5064603;28;45339;-74
2023/09/20 11:23:13;;;;;;;;;4.00;2.33;;;;;28.51;41.62;100471.31;5067347;28;46146;-74
2023/09/20 11:25:41;;;;;;;;;2.00;2.00;;;;;28.52;41.76;100464.81;5056779;28;45471;-75
2023/09/20 11:28:08;;;;;;;;;2.67;2.67;;;;;28.58;41.94;100467.75;5048134;28;45640;-75
2023/09/20 11:30:34;;;;;;;;;2.33;1.00;;;;;28.61;42.00;100464.59;5070592;28;45770;-75
2023/09/20 11:33:01;;;;;;;;;3.00;2.67;;;;;28.65;42.30;100463.97;5065960;28;46278;-77
2023/09/20 11:35:42;;;;;;;;;2.33;2.33;;;;;28.73;41.88;100456.63;5063796;28;45423;-76
2023/09/20 11:38:10;;;;;;;;;2.00;2.00;;;;;28.79;41.78;100462.09;5063014;28;45363;-76
2023/09/20 11:40:37;;;;;;;;;3.33;2.00;;;;;28.85;42.22;100457.66;5068508;27;45514;-74
2023/09/20 11:43:04;;;;;;;;;2.00;2.00;;;;;28.91;42.23;100453.28;5063803;28;46155;-71
2023/09/20 11:45:29;;;;;;;;;2.67;2.67;;;;;28.98;42.07;100440.44;5056876;28;45522;-72
2023/09/20 11:47:55;;;;;;;;;2.00;2.00;;;;;29.02;41.39;100452.63;5063662;28;47245;-71
2023/09/20 11:50:24;;;;;;;;;1.33;1.33;;;;;29.05;41.67;100443.16;5054050;28;45524;-71
2023/09/20 11:52:50;;;;;;;;;1.67;1.67;;;;;29.08;41.56;100434.53;5063995;28;46111;-74
2023/09/20 11:55:16;;;;;;;;;1.67;1.67;;;;;29.10;41.64;100421.47;5071482;28;45712;-74
2023/09/20 11:57:47;;;;;;;;;2.00;2.00;;;;;29.14;42.23;100443.78;5061663;27;45460;-75
2023/09/20 12:00:18;;;;;;;;;2.67;2.00;;;;;29.19;42.08;100433.88;5067448;28;45805;-74
2023/09/20 12:02:43;;;;;;;;;2.00;2.00;;;;;29.24;42.13;100432.38;5062818;28;45828;-73
2023/09/20 12:05:08;;;;;;;;;1.00;1.00;;;;;29.28;41.80;100422.72;5073658;28;45744;-74
2023/09/20 12:07:35;;;;;;;;;3.00;1.33;;;;;29.31;41.91;100422.28;5071152;28;52801;-74
2023/09/20 12:10:01;;;;;;;;;2.33;2.33;;;;;29.32;41.86;100429.41;5071791;28;45702;-73
2023/09/20 12:12:27;;;;;;;;;2.00;2.00;;;;;29.33;41.83;100414.69;5068752;28;46145;-75
2023/09/20 12:14:52;;;;;;;;;2.00;2.00;;;;;29.33;42.26;100421.00;5063189;28;45948;-76
2023/09/20 12:17:17;;;;;;;;;1.67;1.67;;;;;29.36;41.97;100419.75;5070714;28;45637;-76
2023/09/20 12:19:43;;;;;;;;;2.33;2.00;;;;;29.36;42.41;100427.09;5069822;27;45620;-77
2023/09/20 12:22:09;;;;;;;;;3.33;2.00;;;;;29.37;41.87;100418.69;5053654;28;45868;-75
2023/09/20 12:24:35;;;;;;;;;3.33;2.67;;;;;29.38;42.05;100412.16;5060523;28;45502;-75
2023/09/20 12:27:00;;;;;;;;;5.00;2.00;;;;;29.39;41.92;100410.28;5066085;28;45385;-75
2023/09/20 12:29:26;;;;;;;;;3.00;2.00;;;;;29.40;42.03;100381.88;5059621;28;45412;-74
2023/09/20 12:31:52;;;;;;;;;2.33;2.33;;;;;29.42;42.35;100388.81;5057259;28;47048;-75
2023/09/20 12:34:17;;;;;;;;;3.00;3.00;;;;;29.44;42.55;100383.97;5056707;28;45483;-72
2023/09/20 12:36:44;;;;;;;;;4.00;3.00;;;;;29.46;42.70;100376.38;5059391;28;45935;-73
2023/09/20 12:39:10;;;;;;;;;3.00;3.00;;;;;29.50;42.79;100379.53;5067186;28;45687;-74
2023/09/20 12:41:37;;;;;;;;;3.00;1.00;;;;;29.53;43.27;100356.38;5054760;28;46152;-73
2023/09/20 12:44:03;;;;;;;;;3.00;2.67;;;;;29.57;43.44;100371.31;5055398;27;45433;-73
2023/09/20 12:46:31;;;;;;;;;1.33;1.33;;;;;29.63;43.81;100375.06;5059264;28;45477;-73
2023/09/20 12:48:57;;;;;;;;;1.67;1.00;;;;;29.66;44.14;100363.66;5054514;28;45519;-73
2023/09/20 12:51:23;;;;;;;;;2.33;2.00;;;;;29.71;44.63;100363.88;5062515;28;45469;-74
2023/09/20 12:53:49;;;;;;;;;3.00;3.00;;;;;29.75;44.61;100359.63;5061246;28;45531;-74
2023/09/20 12:56:15;;;;;;;;;2.33;2.33;;;;;29.80;45.41;100354.31;5060666;28;45511;-77
2023/09/20 12:58:41;;;;;;;;;3.00;2.00;;;;;29.83;44.89;100355.78;5059411;28;45587;-74
2023/09/20 13:01:09;;;;;;;;;4.33;2.00;;;;;29.87;45.54;100337.88;5058189;28;45752;-74
2023/09/20 13:03:35;;;;;;;;;2.33;1.00;;;;;29.91;45.61;100333.63;5058581;28;46101;-74
2023/09/20 13:06:01;;;;;;;;;6.33;3.00;;;;;29.92;45.60;100329.84;5058088;28;45630;-74
2023/09/20 13:08:26;;;;;;;;;2.67;2.67;;;;;29.94;45.46;100335.94;5070564;28;45515;-75
2023/09/20 13:10:52;;;;;;;;;3.00;3.00;;;;;29.93;44.99;100331.53;5055201;28;45910;-75
2023/09/20 13:13:18;;;;;;;;;3.67;3.67;;;;;29.96;45.02;100330.25;5068882;28;45384;-75
2023/09/20 13:15:44;;;;;;;;;1.00;1.00;;;;;29.95;44.65;100329.41;5067075;28;45587;-75
2023/09/20 13:18:11;;;;;;;;;2.00;2.00;;;;;29.97;44.68;100324.56;5060835;28;45424;-75
2023/09/20 13:20:37;;;;;;;;;1.67;1.67;;;;;29.97;44.28;100312.78;5059425;28;46442;-75
2023/09/20 13:23:03;;;;;;;;;2.33;2.33;;;;;29.96;42.63;100302.91;5070275;28;45443;-75
2023/09/20 13:25:31;;;;;;;;;2.33;2.33;;;;;29.94;42.08;100313.22;5048982;28;45395;-74
2023/09/20 13:27:57;;;;;;;;;4.33;2.67;;;;;29.89;41.97;100302.94;5066283;28;45494;-74
2023/09/20 13:30:26;;;;;;;;;4.00;1.67;;;;;29.86;42.09;100297.91;5068454;28;46217;-73
2023/09/20 13:32:52;;;;;;;;;5.00;2.00;;;;;29.84;42.08;100303.59;5064532;28;45697;-73
2023/09/20 13:35:18;;;;;;;;;3.33;2.00;;;;;29.83;42.29;100303.81;5061249;28;45439;-75
2023/09/20 13:37:45;;;;;;;;;4.33;1.67;;;;;29.82;41.97;100285.72;5066546;28;46297;-74
2023/09/20 13:40:15;;;;;;;;;2.00;2.00;;;;;29.82;42.24;100292.06;5071654;28;46051;-73
2023/09/20 13:42:44;;;;;;;;;1.33;1.33;;;;;29.82;42.23;100285.72;5063083;28;45582;-73
2023/09/20 13:45:15;;;;;;;;;3.67;2.00;;;;;29.82;42.48;100286.59;5072766;28;45525;-73
2023/09/20 13:47:41;;;;;;;;;2.67;2.67;;;;;29.82;42.00;100283.84;5068977;28;45488;-73
2023/09/20 13:50:09;;;;;;;;;3.00;3.00;;;;;29.85;42.45;100274.34;5065514;28;46339;-73
2023/09/20 13:52:35;;;;;;;;;2.33;2.33;;;;;29.85;42.08;100282.56;5061799;28;45607;-72
2023/09/20 13:55:04;;;;;;;;;4.00;3.67;;;;;29.83;42.03;100263.63;5069251;28;45485;-73
2023/09/20 13:57:30;;;;;;;;;3.67;3.67;;;;;29.84;41.92;100261.75;5067867;28;45408;-73
2023/09/20 13:59:57;;;;;;;;;2.00;2.00;;;;;29.81;41.57;100253.97;5063727;27;49442;-75
2023/09/20 14:02:23;;;;;;;;;2.67;2.00;;;;;29.83;42.31;100258.16;5071266;28;45507;-75
2023/09/20 14:04:49;;;;;;;;;2.67;2.67;;;;;29.82;41.86;100251.03;5070920;28;45706;-76
2023/09/20 14:07:14;;;;;;;;;2.67;2.67;;;;;29.82;42.08;100253.75;5073188;28;45487;-76
2023/09/20 14:09:41;;;;;;;;;3.00;3.00;;;;;29.81;41.71;100254.81;5065641;28;60457;-75
2023/09/20 14:12:12;;;;;;;;;4.67;3.33;;;;;29.80;41.92;100246.84;5060644;28;45474;-74
2023/09/20 14:14:37;;;;;;;;;3.00;3.00;;;;;29.79;41.55;100250.63;5068138;28;45459;-74
2023/09/20 14:17:04;;;;;;;;;2.00;2.00;;;;;29.79;41.64;100240.53;5073239;28;45576;-74
2023/09/20 14:19:30;;;;;;;;;1.67;1.67;;;;;29.78;41.60;100240.75;5069779;28;46149;-74
2023/09/20 14:21:55;;;;;;;;;1.67;1.67;;;;;29.75;41.38;100236.56;5070886;28;45506;-74
2023/09/20 14:24:21;;;;;;;;;4.00;2.67;;;;;29.76;41.40;100226.47;5062440;28;45458;-75
2023/09/20 14:26:47;;;;;;;;;2.33;2.33;;;;;29.74;41.59;100223.94;5061916;28;46261;-74
2023/09/20 14:29:13;;;;;;;;;3.00;3.00;;;;;29.74;41.25;100228.59;5071033;28;45502;-73
2023/09/20 14:31:39;;;;;;;;;3.67;3.33;;;;;29.72;40.18;100213.22;5054171;28;45529;-72
2023/09/20 14:34:06;;;;;;;;;2.00;2.00;;;;;29.66;40.20;100211.41;5068397;28;46280;-71
2023/09/20 14:36:34;;;;;;;;;1.00;1.00;;;;;29.61;40.37;100213.09;5051677;28;45688;-73
2023/09/20 14:39:00;;;;;;;;;1.00;1.00;;;;;29.57;40.38;100218.19;5068844;28;46563;-73
2023/09/20 14:41:25;;;;;;;;;2.00;2.00;;;;;29.52;40.57;100199.75;5072136;28;45858;-72
2023/09/20 14:43:51;;;;;;;;;2.00;2.00;;;;;29.47;40.18;100207.75;5072482;28;45611;-73
2023/09/20 14:46:17;;;;;;;;;2.00;2.00;;;;;29.38;40.23;100198.13;5058120;28;45598;-72
2023/09/20 14:48:43;;;;;;;;;2.00;2.00;;;;;29.34;40.77;100192.25;5060996;28;47335;-73
2023/09/20 14:51:14;;;;;;;;;2.00;2.00;;;;;29.30;40.21;100191.03;5071757;28;45395;-73
2023/09/20 14:53:41;;;;;;;;;2.00;2.00;;;;;29.27;40.25;100184.13;5069516;28;45610;-73
2023/09/20 14:56:07;;;;;;;;;2.67;2.33;;;;;29.24;40.49;100189.19;5061016;28;45698;-73
2023/09/20 14:58:33;;;;;;;;;2.00;2.00;;;;;29.20;40.89;100188.78;5064304;28;46161;-73
2023/09/20 15:00:58;;;;;;;;;3.67;2.33;;;;;29.15;40.41;100191.34;5071247;28;45563;-73
2023/09/20 15:03:24;;;;;;;;;1.33;1.33;;;;;29.13;40.90;100183.38;5069793;28;45438;-74
2023/09/20 15:05:50;;;;;;;;;3.33;2.00;;;;;29.10;40.85;100175.59;5070950;28;46052;-74
2023/09/20 15:08:20;;;;;;;;;2.00;2.00;;;;;29.09;40.74;100173.94;5071532;28;46261;-74
2023/09/20 15:10:48;;;;;;;;;2.00;2.00;;;;;29.08;40.87;100175.00;5065992;28;45516;-75
2023/09/20 15:13:13;;;;;;;;;2.67;2.67;;;;;29.09;41.04;100167.66;5064792;28;45462;-73
2023/09/20 15:15:41;;;;;;;;;2.00;2.00;;;;;29.08;40.54;100164.06;5062337;27;61917;-73
2023/09/20 15:18:07;;;;;;;;;6.33;4.33;;;;;29.06;40.61;100164.28;5061379;28;45926;-72
2023/09/20 15:20:32;;;;;;;;;2.33;2.33;;;;;29.04;40.59;100152.75;5063418;28;50529;-72
2023/09/20 15:22:58;;;;;;;;;2.67;2.67;;;;;29.04;40.77;100144.56;5060826;28;45930;-72
2023/09/20 15:25:25;;;;;;;;;2.00;2.00;;;;;29.02;40.68;100141.19;5072382;28;45479;-73
2023/09/20 15:27:50;;;;;;;;;5.00;4.00;;;;;29.02;40.83;100134.91;5074042;28;46169;-73
2023/09/20 15:30:16;;;;;;;;;5.00;2.00;;;;;28.99;40.58;100127.13;5073958;28;45591;-71
2023/09/20 15:32:42;;;;;;;;;2.33;2.33;;;;;28.97;41.27;100116.44;5073419;28;45491;-72
2023/09/20 15:35:10;;;;;;;;;2.00;2.00;;;;;28.96;40.97;100105.72;5074396;28;45419;-72
2023/09/20 15:37:43;;;;;;;;;3.33;2.00;;;;;28.95;40.72;100104.91;5068528;28;46131;-72
2023/09/20 15:40:15;;;;;;;;;3.00;3.00;;;;;28.92;40.74;100097.13;5073795;27;45623;-72
2023/09/20 15:42:41;;;;;;;;;2.33;2.33;;;;;28.91;40.89;100092.75;5071725;28;45475;-73
2023/09/20 15:45:07;;;;;;;;;3.00;3.00;;;;;28.89;40.62;100089.41;5065913;28;45941;-71
2023/09/20 15:47:32;;;;;;;;;2.00;2.00;;;;;28.85;41.19;100083.50;5073421;28;45394;-74
2023/09/20 15:49:58;;;;;;;;;2.33;2.33;;;;;28.85;40.62;100078.03;5072734;28;45957;-73
2023/09/20 15:52:24;;;;;;;;;2.00;2.00;;;;;28.83;40.44;100071.97;5071073;28;45606;-73
2023/09/20 15:54:50;;;;;;;;;2.00;2.00;;;;;28.82;40.81;100077.66;5049407;28;45551;-72
2023/09/20 15:57:15;;;;;;;;;2.00;2.00;;;;;28.79;41.14;100078.91;5058974;28;45452;-73
2023/09/20 15:59:41;;;;;;;;;3.33;3.00;;;;;28.78;40.93;100071.78;5073594;28;45369;-72
2023/09/20 16:02:08;;;;;;;;;2.67;2.00;;;;;28.76;40.86;100074.75;5073127;28;45592;-73
2023/09/20 16:04:34;;;;;;;;;2.00;2.00;;;;;28.75;40.79;100073.06;5054599;28;45705;-73
2023/09/20 16:06:59;;;;;;;;;2.00;2.00;;;;;28.72;41.03;100065.31;5068461;28;45922;-73
2023/09/20 16:09:24;;;;;;;;;4.33;2.67;;;;;28.72;40.59;100065.31;5074019;28;47476;-75
2023/09/20 16:11:52;;;;;;;;;4.67;2.67;;;;;28.75;40.69;100077.69;5062796;28;46989;-77
2023/09/20 16:14:18;;;;;;;;;5.33;4.00;;;;;28.77;41.04;100067.41;5058369;28;45585;-77
2023/09/20 16:16:43;;;;;;;;;3.00;2.00;;;;;28.79;41.35;100057.94;5067940;28;46106;-76
2023/09/20 16:19:11;;;;;;;;;4.33;3.00;;;;;28.83;41.47;100071.13;5064544;28;45654;-77
2023/09/20 16:21:37;;;;;;;;;3.33;2.33;;;;;28.86;40.98;100059.75;5066820;28;45428;-76
2023/09/20 16:24:03;;;;;;;;;2.67;2.67;;;;;28.89;41.70;100051.16;5065522;28;45665;-77
2023/09/20 16:26:28;;;;;;;;;2.00;2.00;;;;;28.93;41.63;100061.41;5082234;27;47238;-76
2023/09/20 16:28:53;;;;;;;;;5.00;2.00;;;;;28.97;41.40;100059.06;5057647;28;46891;-76
2023/09/20 16:31:18;;;;;;;;;4.00;3.33;;;;;29.02;41.39;100059.22;5068617;28;45534;-73
2023/09/20 16:33:45;;;;;;;;;3.00;3.00;;;;;29.05;41.68;100042.41;5060367;28;45458;-75
2023/09/20 16:36:11;;;;;;;;;3.00;2.00;;;;;29.09;41.51;100047.44;5064132;28;46363;-76
2023/09/20 16:38:36;;;;;;;;;3.67;2.33;;;;;29.12;41.53;100047.81;5064966;28;48648;-76
2023/09/20 16:41:02;;;;;;;;;3.00;3.00;;;;;29.17;41.81;100049.88;5065200;28;45431;-74
2023/09/20 16:43:28;;;;;;;;;2.00;2.00;;;;;29.18;41.00;100038.72;5064378;28;45697;-74
2023/09/20 16:45:54;;;;;;;;;1.67;1.67;;;;;29.18;39.94;100029.72;5072182;28;45921;-74
2023/09/20 16:48:20;;;;;;;;;3.00;2.33;;;;;29.15;39.83;100028.25;5068198;28;45729;-75
2023/09/20 16:50:46;;;;;;;;;1.33;1.33;;;;;29.17;40.25;100031.59;5071878;28;45352;-75
2023/09/20 16:53:11;;;;;;;;;6.00;2.33;;;;;29.18;40.26;100029.72;5068325;28;45450;-75
2023/09/20 16:55:37;;;;;;;;;5.00;2.67;;;;;29.19;40.11;100026.72;5064636;28;45643;-76
2023/09/20 16:58:03;;;;;;;;;4.00;3.00;;;;;29.19;40.82;100018.53;5068529;28;45452;-76
2023/09/20 17:00:32;;;;;;;;;2.00;2.00;;;;;29.20;40.69;100024.84;5070163;28;45650;-75
2023/09/20 17:02:58;;;;;;;;;2.33;2.33;;;;;29.22;40.64;100019.97;5069250;28;45502;-76
2023/09/20 17:05:24;;;;;;;;;3.00;3.00;;;;;29.24;40.49;100019.75;5059783;28;46344;-76
2023/09/20 17:07:52;;;;;;;;;1.33;1.33;;;;;29.24;40.75;100006.94;5066323;27;45547;-76
2023/09/20 17:10:19;;;;;;;;;2.00;2.00;;;;;29.26;41.08;100023.94;5068788;28;45496;-75
2023/09/20 17:12:46;;;;;;;;;2.00;2.00;;;;;29.27;40.41;100011.97;5061444;28;47689;-76
2023/09/20 17:15:11;;;;;;;;;3.33;2.67;;;;;29.30;40.72;100013.41;5070277;27;45454;-75
2023/09/20 17:17:37;;;;;;;;;3.33;3.33;;;;;29.30;40.88;100019.69;5069241;28;45570;-72
2023/09/20 17:20:03;;;;;;;;;4.00;4.00;;;;;29.28;41.15;100013.63;5070004;28;45506;-73
2023/09/20 17:22:28;;;;;;;;;2.00;2.00;;;;;29.32;41.00;100011.28;5057527;28;45690;-75
2023/09/20 17:24:54;;;;;;;;;4.00;3.67;;;;;29.32;41.02;100001.19;5071906;28;46399;-75
